Time;durP1;ratioP1;P1;durP2;ratioP2;P2;SDS_P1;SDS_P2;PMS_P1;PMS_P2;Temp;Humidity;BMP_temperature;BMP_pressure;BME280_temperature;BME280_humidity;BME280_pressure;Samples;Min_cycle;Max_cycle;Signal;HPM_P1;HPM_P2
2021/08/06 00:02:15;;;;;;;8.23;5.25;;;21.80;73.10;;;;;;5114335;28;20039;-78
2021/08/06 00:04:41;;;;;;;7.10;5.10;;;21.80;73.20;;;;;;5113995;28;20051;-78
2021/08/06 00:07:07;;;;;;;8.70;5.30;;;21.70;73.30;;;;;;5114522;28;20042;-78
2021/08/06 00:09:36;;;;;;;7.68;5.32;;;21.70;73.30;;;;;;5113627;28;20133;-78
2021/08/06 00:12:03;;;;;;;6.05;5.10;;;21.70;73.30;;;;;;5114000;28;20119;-78
2021/08/06 00:14:29;;;;;;;6.68;5.38;;;21.70;73.30;;;;;;5113656;28;20031;-78
2021/08/06 00:16:55;;;;;;;7.20;5.38;;;21.70;73.30;;;;;;5113899;28;20398;-78
2021/08/06 00:19:21;;;;;;;8.70;5.35;;;21.70;73.30;;;;;;5113705;28;20100;-78
2021/08/06 00:21:48;;;;;;;7.57;5.28;;;21.70;73.30;;;;;;5113643;28;20462;-78
2021/08/06 00:24:14;;;;;;;11.20;5.60;;;21.70;73.20;;;;;;5113537;28;20115;-78
2021/08/06 00:26:40;;;;;;;5.68;5.10;;;21.70;73.20;;;;;;5114331;28;20046;-79
2021/08/06 00:29:09;;;;;;;7.97;5.32;;;21.70;73.10;;;;;;5113907;28;20590;-80
2021/08/06 00:31:38;;;;;;;8.30;5.68;;;21.70;73.30;;;;;;5113524;28;20062;-78
2021/08/06 00:34:06;;;;;;;7.72;5.45;;;21.70;73.30;;;;;;5078967;28;20039;-78
2021/08/06 00:36:32;;;;;;;7.90;5.18;;;21.70;73.20;;;;;;5113870;28;20069;-79
2021/08/06 00:38:59;;;;;;;8.20;5.32;;;21.70;73.10;;;;;;5095189;28;20043;-79
2021/08/06 00:41:30;;;;;;;8.23;5.78;;;21.60;73.20;;;;;;5113806;28;20047;-79
2021/08/06 00:43:59;;;;;;;5.75;5.13;;;21.60;73.20;;;;;;5095226;28;20038;-77
2021/08/06 00:46:27;;;;;;;6.07;5.47;;;21.60;73.30;;;;;;5095038;28;20060;-77
2021/08/06 00:48:59;;;;;;;6.22;5.65;;;21.60;73.20;;;;;;5095739;28;20054;-78
2021/08/06 00:51:27;;;;;;;10.45;5.90;;;21.50;73.20;;;;;;5095619;28;20427;-78
2021/08/06 00:53:57;;;;;;;8.82;5.70;;;21.40;73.40;;;;;;5099696;28;20035;-78
2021/08/06 00:56:33;;;;;;;10.55;6.00;;;21.40;73.50;;;;;;5117797;28;20039;-78
2021/08/06 00:59:02;;;;;;;9.05;5.63;;;21.40;73.70;;;;;;5099534;28;20031;-79
2021/08/06 01:01:30;;;;;;;6.38;5.68;;;21.40;73.60;;;;;;5099246;28;20088;-79
2021/08/06 01:04:27;;;;;;;6.90;5.95;;;21.40;73.60;;;;;;5068451;28;20056;-80
2021/08/06 01:07:04;;;;;;;5.63;5.13;;;21.40;73.60;;;;;;5064641;28;20170;-78
2021/08/06 01:09:59;;;;;;;6.57;5.80;;;21.40;73.60;;;;;;5075715;28;20271;-78
2021/08/06 01:12:50;;;;;;;14.93;6.97;;;21.40;73.80;;;;;;5077488;28;20041;-78
2021/08/06 01:15:18;;;;;;;10.30;5.90;;;21.40;73.90;;;;;;5093002;28;20036;-78
2021/08/06 01:17:46;;;;;;;10.85;6.18;;;21.40;74.20;;;;;;5075797;28;20044;-79
2021/08/06 01:20:21;;;;;;;6.78;6.03;;;21.30;74.40;;;;;;5092368;28;20064;-78
2021/08/06 01:23:15;;;;;;;9.23;6.70;;;21.20;74.40;;;;;;5075103;28;20043;-78
2021/08/06 01:25:58;;;;;;;8.98;6.05;;;21.30;74.60;;;;;;5075239;28;20536;-79
2021/08/06 01:28:45;;;;;;;10.63;6.82;;;21.20;74.60;;;;;;5077252;28;20566;-79
2021/08/06 01:31:13;;;;;;;9.65;7.15;;;21.20;74.70;;;;;;5075097;28;20505;-78
2021/08/06 01:33:44;;;;;;;9.77;7.30;;;21.20;74.80;;;;;;5075180;28;20132;-79
2021/08/06 01:36:17;;;;;;;10.85;7.53;;;21.20;74.70;;;;;;5075206;28;20044;-78
2021/08/06 01:38:45;;;;;;;8.60;7.72;;;21.20;74.80;;;;;;5055141;28;20413;-78
2021/08/06 01:41:25;;;;;;;10.70;7.45;;;21.20;74.80;;;;;;5055274;28;20441;-78
2021/08/06 01:44:22;;;;;;;10.13;8.38;;;21.20;74.80;;;;;;5085153;28;20119;-78
2021/08/06 01:46:51;;;;;;;8.55;7.68;;;21.20;74.90;;;;;;5092653;28;20063;-78
2021/08/06 01:49:20;;;;;;;8.02;7.22;;;21.20;75.10;;;;;;5074940;28;20044;-78
2021/08/06 01:51:54;;;;;;;8.90;8.00;;;21.10;75.10;;;;;;5058626;28;20087;-78
2021/08/06 01:54:26;;;;;;;12.05;7.47;;;21.20;75.10;;;;;;5074800;28;20412;-78
2021/08/06 01:56:54;;;;;;;9.55;7.25;;;21.20;75.10;;;;;;5075065;28;20563;-78
2021/08/06 01:59:20;;;;;;;15.75;13.02;;;21.20;75.40;;;;;;5072154;28;20037;-78
2021/08/06 02:01:54;;;;;;;15.75;13.85;;;21.30;75.20;;;;;;5039617;28;20094;-78
2021/08/06 02:04:22;;;;;;;17.65;11.40;;;21.20;75.10;;;;;;5082080;28;20070;-78
2021/08/06 02:07:15;;;;;;;15.60;10.75;;;21.20;75.10;;;;;;5078008;28;20043;-79
2021/08/06 02:09:42;;;;;;;17.20;14.07;;;21.30;75.50;;;;;;5098060;28;20032;-78
2021/08/06 02:12:14;;;;;;;16.23;12.82;;;21.20;75.20;;;;;;5115962;28;20036;-77
2021/08/06 02:14:53;;;;;;;16.38;12.95;;;21.20;75.20;;;;;;5098517;28;20403;-78
2021/08/06 02:17:22;;;;;;;14.35;11.63;;;21.20;75.20;;;;;;5115435;28;20439;-77
2021/08/06 02:19:51;;;;;;;17.48;12.27;;;21.20;75.20;;;;;;5097763;28;20588;-77
2021/08/06 02:22:18;;;;;;;13.52;11.88;;;21.20;75.30;;;;;;5116092;28;20042;-77
2021/08/06 02:24:51;;;;;;;14.48;12.80;;;21.20;75.40;;;;;;5098066;28;20050;-77
2021/08/06 02:27:23;;;;;;;11.00;9.30;;;21.20;75.40;;;;;;5097892;28;20488;-80
2021/08/06 02:29:53;;;;;;;9.65;8.60;;;21.20;75.60;;;;;;5097665;28;20130;-76
2021/08/06 02:32:24;;;;;;;15.15;11.95;;;21.30;75.90;;;;;;5097690;28;20137;-79
2021/08/06 02:34:51;;;;;;;13.68;11.30;;;21.30;75.50;;;;;;5097497;28;20063;-79
2021/08/06 02:37:18;;;;;;;14.70;11.60;;;21.30;75.40;;;;;;5097767;28;20111;-77
2021/08/06 02:39:44;;;;;;;13.68;11.88;;;21.30;75.60;;;;;;5115850;28;20131;-76
2021/08/06 02:42:10;;;;;;;12.45;10.43;;;21.20;75.60;;;;;;5097465;28;20121;-77
2021/08/06 02:44:37;;;;;;;15.45;11.32;;;21.20;75.80;;;;;;5097215;28;20039;-77
2021/08/06 02:47:05;;;;;;;15.93;12.70;;;21.30;75.80;;;;;;5115513;28;20400;-77
2021/08/06 02:49:33;;;;;;;16.42;12.45;;;21.30;75.70;;;;;;5097500;28;20042;-77
2021/08/06 02:52:01;;;;;;;16.20;12.35;;;21.30;75.60;;;;;;5114396;28;20035;-78
2021/08/06 02:54:28;;;;;;;14.43;11.50;;;21.30;75.70;;;;;;5096236;28;20028;-78
2021/08/06 02:56:55;;;;;;;13.00;11.70;;;21.30;75.60;;;;;;5094781;28;20048;-78
2021/08/06 02:59:22;;;;;;;16.25;11.98;;;21.30;75.60;;;;;;5093243;28;20527;-78
2021/08/06 03:01:48;;;;;;;14.10;11.23;;;21.30;75.50;;;;;;5093581;28;20082;-78
2021/08/06 03:04:14;;;;;;;14.18;12.27;;;21.30;75.70;;;;;;5093578;28;20056;-79
2021/08/06 03:06:41;;;;;;;14.68;11.25;;;21.30;75.90;;;;;;5076718;28;20028;-78
2021/08/06 03:09:07;;;;;;;13.43;10.60;;;21.20;76.00;;;;;;5094449;28;20076;-79
2021/08/06 03:11:33;;;;;;;15.75;10.90;;;21.20;76.10;;;;;;5093311;28;20445;-78
2021/08/06 03:14:02;;;;;;;14.75;10.57;;;21.20;76.20;;;;;;5092810;28;20036;-78
2021/08/06 03:16:29;;;;;;;12.10;9.95;;;21.20;76.30;;;;;;5075838;28;20169;-79
2021/08/06 03:18:56;;;;;;;13.57;10.45;;;21.20;76.40;;;;;;5093173;28;20036;-79
2021/08/06 03:21:23;;;;;;;15.23;10.45;;;21.10;76.50;;;;;;5102171;28;20043;-80
2021/08/06 03:23:50;;;;;;;14.75;10.55;;;21.10;76.50;;;;;;5114039;28;20484;-79
2021/08/06 03:26:16;;;;;;;14.68;10.23;;;21.10;76.60;;;;;;5096893;28;20498;-79
2021/08/06 03:28:44;;;;;;;12.32;9.85;;;21.10;76.60;;;;;;5096911;28;20075;-79
2021/08/06 03:31:10;;;;;;;13.02;10.07;;;21.10;76.80;;;;;;5115499;28;20031;-79
2021/08/06 03:33:37;;;;;;;14.30;11.00;;;21.10;76.80;;;;;;5096391;28;20063;-79
2021/08/06 03:36:07;;;;;;;15.00;10.20;;;21.10;76.80;;;;;;5105346;28;20419;-78
2021/08/06 03:38:34;;;;;;;13.05;9.57;;;21.10;76.80;;;;;;5093049;28;20400;-78
2021/08/06 03:41:02;;;;;;;16.33;9.32;;;21.10;76.90;;;;;;5092650;28;20036;-79
2021/08/06 03:43:29;;;;;;;15.48;10.88;;;21.10;77.00;;;;;;5075563;28;20492;-79
2021/08/06 03:45:55;;;;;;;18.63;9.77;;;21.10;77.10;;;;;;5092854;28;20471;-79
2021/08/06 03:48:22;;;;;;;17.02;10.35;;;21.10;77.10;;;;;;5092715;28;20059;-78
2021/08/06 03:50:48;;;;;;;11.05;9.40;;;21.10;77.10;;;;;;5059054;28;20074;-79
2021/08/06 03:53:16;;;;;;;13.32;9.57;;;21.10;77.10;;;;;;5075619;28;20391;-79
2021/08/06 03:55:46;;;;;;;16.83;10.27;;;21.10;77.30;;;;;;5096144;28;20073;-79
2021/08/06 03:58:14;;;;;;;14.63;10.00;;;21.10;77.40;;;;;;5095830;28;20051;-79
2021/08/06 04:00:41;;;;;;;17.23;10.13;;;21.10;77.50;;;;;;5095291;28;20031;-79
2021/08/06 04:03:10;;;;;;;14.80;9.35;;;21.10;77.50;;;;;;5112707;28;20043;-79
2021/08/06 04:05:36;;;;;;;15.73;9.68;;;21.10;77.60;;;;;;5095916;28;20036;-79
2021/08/06 04:08:07;;;;;;;12.57;10.30;;;21.10;77.50;;;;;;5112589;28;20039;-79
2021/08/06 04:10:37;;;;;;;15.40;10.38;;;21.20;78.20;;;;;;5095824;28;20517;-79
2021/08/06 04:13:05;;;;;;;16.55;10.75;;;21.20;77.70;;;;;;5095867;28;20063;-79
2021/08/06 04:15:32;;;;;;;14.90;10.30;;;21.20;78.20;;;;;;5113718;28;20114;-79
2021/08/06 04:17:59;;;;;;;15.60;10.15;;;21.20;77.60;;;;;;5114036;28;20495;-79
2021/08/06 04:20:25;;;;;;;12.80;10.55;;;21.20;77.60;;;;;;5112940;28;20518;-79
2021/08/06 04:22:51;;;;;;;18.30;9.98;;;21.20;77.60;;;;;;5113904;28;20445;-79
2021/08/06 04:25:17;;;;;;;12.60;9.98;;;21.20;77.60;;;;;;5095212;28;20031;-79
2021/08/06 04:27:44;;;;;;;15.63;9.70;;;21.30;77.70;;;;;;5112563;28;20092;-79
2021/08/06 04:30:11;;;;;;;17.20;10.63;;;21.30;77.60;;;;;;5096079;28;20036;-79
2021/08/06 04:32:37;;;;;;;14.38;10.35;;;21.40;77.60;;;;;;5097973;27;20039;-78
2021/08/06 04:35:04;;;;;;;13.80;9.38;;;21.40;77.60;;;;;;5115713;28;20038;-78
2021/08/06 04:37:31;;;;;;;19.45;10.05;;;21.40;77.60;;;;;;5115508;27;20035;-79
2021/08/06 04:39:57;;;;;;;17.02;10.35;;;21.40;77.50;;;;;;5115200;27;20035;-79
2021/08/06 04:42:23;;;;;;;15.35;9.95;;;21.40;77.40;;;;;;5104492;28;20031;-80
2021/08/06 04:44:49;;;;;;;14.40;9.57;;;21.50;77.30;;;;;;5111581;28;20100;-78
2021/08/06 04:47:15;;;;;;;18.23;10.32;;;21.60;77.30;;;;;;5095076;28;20563;-76
2021/08/06 04:49:41;;;;;;;13.00;10.73;;;21.60;77.20;;;;;;5095137;28;20126;-77
2021/08/06 04:52:08;;;;;;;15.40;10.40;;;21.60;77.00;;;;;;5095134;28;20044;-77
2021/08/06 04:54:35;;;;;;;15.85;11.02;;;21.60;77.10;;;;;;5094841;28;20411;-78
2021/08/06 04:57:01;;;;;;;18.25;10.20;;;21.60;77.10;;;;;;5094704;28;20146;-77
2021/08/06 04:59:27;;;;;;;12.25;9.93;;;21.70;77.10;;;;;;5094832;28;20039;-77
2021/08/06 05:01:54;;;;;;;21.65;10.85;;;21.70;77.10;;;;;;5109701;28;20039;-78
2021/08/06 05:04:20;;;;;;;13.32;8.73;;;21.70;77.00;;;;;;5111828;28;20112;-78
2021/08/06 05:06:46;;;;;;;13.57;8.55;;;21.80;76.80;;;;;;5078170;28;20090;-78
2021/08/06 05:09:12;;;;;;;14.38;10.73;;;21.80;76.90;;;;;;5106204;28;20043;-80
2021/08/06 05:11:39;;;;;;;17.27;10.50;;;21.90;76.60;;;;;;5090989;28;20063;-79
2021/08/06 05:14:06;;;;;;;16.80;10.93;;;21.90;76.60;;;;;;5092002;28;20043;-79
2021/08/06 05:16:33;;;;;;;12.82;9.77;;;21.90;76.70;;;;;;5091876;28;20035;-79
2021/08/06 05:19:00;;;;;;;20.50;10.80;;;21.90;76.70;;;;;;5091445;28;20036;-79
2021/08/06 05:21:27;;;;;;;18.45;10.18;;;21.90;76.70;;;;;;5074546;28;20032;-77
2021/08/06 05:23:52;;;;;;;17.45;10.63;;;21.90;76.70;;;;;;5095177;28;20114;-78
2021/08/06 05:26:20;;;;;;;17.17;10.68;;;21.90;76.70;;;;;;5111886;28;20035;-78
2021/08/06 05:28:46;;;;;;;16.80;10.80;;;21.90;76.80;;;;;;5113359;28;20114;-77
2021/08/06 05:31:11;;;;;;;15.68;10.32;;;21.90;76.80;;;;;;5111625;28;20134;-77
2021/08/06 05:33:38;;;;;;;14.65;10.32;;;21.90;76.70;;;;;;5094789;28;20047;-78
2021/08/06 05:36:04;;;;;;;13.63;10.18;;;22.00;76.80;;;;;;5110824;28;20124;-78
2021/08/06 05:38:32;;;;;;;14.63;10.60;;;22.00;76.80;;;;;;5113495;28;20136;-78
2021/08/06 05:40:58;;;;;;;21.63;10.60;;;22.10;76.90;;;;;;5098445;28;20495;-78
2021/08/06 05:43:24;;;;;;;19.38;11.32;;;22.10;76.90;;;;;;5116608;28;20143;-78
2021/08/06 05:45:50;;;;;;;22.08;10.57;;;22.00;76.80;;;;;;5098826;28;20578;-78
2021/08/06 05:48:18;;;;;;;15.98;10.98;;;22.10;76.80;;;;;;5098326;28;20122;-78
2021/08/06 05:50:45;;;;;;;18.52;10.68;;;22.10;76.70;;;;;;5098350;28;20434;-78
2021/08/06 05:53:16;;;;;;;13.30;9.82;;;22.20;76.80;;;;;;5097909;28;20138;-78
2021/08/06 05:55:48;;;;;;;18.70;11.25;;;22.20;76.90;;;;;;5098421;28;20076;-78
2021/08/06 05:58:14;;;;;;;19.17;10.90;;;22.20;77.00;;;;;;5117160;28;20081;-78
2021/08/06 06:00:40;;;;;;;20.48;11.70;;;22.20;77.00;;;;;;5097897;28;20131;-80
2021/08/06 06:03:18;;;;;;;18.23;12.05;;;22.20;77.10;;;;;;5097942;28;20059;-78
2021/08/06 06:06:07;;;;;;;17.30;12.45;;;22.20;77.10;;;;;;5098123;28;20133;-76
2021/08/06 06:08:33;;;;;;;21.55;12.13;;;22.20;77.10;;;;;;5097976;28;20036;-77
2021/08/06 06:11:00;;;;;;;16.85;11.80;;;22.20;77.20;;;;;;5097702;28;20399;-77
2021/08/06 06:13:26;;;;;;;24.95;13.60;;;22.20;77.20;;;;;;5097503;28;20036;-77
2021/08/06 06:15:54;;;;;;;19.05;12.40;;;22.20;77.30;;;;;;5098140;28;20039;-76
2021/08/06 06:18:21;;;;;;;20.65;12.73;;;22.20;77.50;;;;;;5098087;28;20114;-77
2021/08/06 06:20:47;;;;;;;21.40;13.13;;;22.20;77.50;;;;;;5115649;28;20046;-81
2021/08/06 06:23:15;;;;;;;21.88;11.98;;;22.20;77.50;;;;;;5115791;28;20503;-78
2021/08/06 06:25:42;;;;;;;21.20;12.45;;;22.20;77.60;;;;;;5097733;28;20028;-78
2021/08/06 06:28:09;;;;;;;23.70;13.27;;;22.20;77.60;;;;;;5080595;28;20518;-79
2021/08/06 06:30:41;;;;;;;22.25;12.32;;;22.30;77.70;;;;;;5080940;28;20415;-78
2021/08/06 06:33:08;;;;;;;26.73;12.65;;;22.20;77.80;;;;;;5096993;28;20491;-77
2021/08/06 06:35:36;;;;;;;19.13;12.75;;;22.30;77.70;;;;;;5112502;28;20027;-77
2021/08/06 06:38:03;;;;;;;25.17;14.50;;;22.20;77.70;;;;;;5097452;28;20118;-77
2021/08/06 06:40:29;;;;;;;22.95;13.23;;;22.30;77.70;;;;;;5112014;28;20131;-79
2021/08/06 06:42:58;;;;;;;21.65;12.57;;;22.30;77.50;;;;;;5097070;28;20483;-78
2021/08/06 06:45:25;;;;;;;26.40;12.70;;;22.30;77.50;;;;;;5113899;28;20096;-79
2021/08/06 06:47:54;;;;;;;29.73;13.05;;;22.30;77.60;;;;;;5112433;28;20084;-78
2021/08/06 06:50:26;;;;;;;21.05;12.93;;;22.30;77.20;;;;;;5112958;28;20027;-78
2021/08/06 06:52:53;;;;;;;20.00;12.02;;;22.30;77.20;;;;;;5097475;28;20058;-78
2021/08/06 06:55:20;;;;;;;24.60;13.00;;;22.30;77.20;;;;;;5115842;28;20038;-78
2021/08/06 06:57:51;;;;;;;16.33;11.93;;;22.30;77.10;;;;;;5113903;28;20076;-79
2021/08/06 07:00:22;;;;;;;19.65;12.95;;;22.30;76.90;;;;;;5096050;28;20040;-78
2021/08/06 07:02:49;;;;;;;20.20;12.18;;;22.30;76.60;;;;;;5096735;28;20031;-80
2021/08/06 07:05:15;;;;;;;18.45;12.52;;;22.40;76.60;;;;;;5080106;28;20076;-79
2021/08/06 07:07:42;;;;;;;22.10;12.50;;;22.40;76.60;;;;;;5096803;28;20032;-79
2021/08/06 07:10:10;;;;;;;18.30;11.68;;;22.40;76.60;;;;;;5096595;28;20396;-77
2021/08/06 07:12:39;;;;;;;21.20;12.25;;;22.40;76.50;;;;;;5096662;28;20036;-77
2021/08/06 07:15:09;;;;;;;18.27;12.18;;;22.50;76.50;;;;;;5112967;28;20053;-77
2021/08/06 07:17:38;;;;;;;26.80;12.65;;;22.60;76.40;;;;;;5096743;28;20036;-78
2021/08/06 07:20:07;;;;;;;23.20;12.45;;;22.60;76.30;;;;;;5096389;28;20046;-78
2021/08/06 07:22:34;;;;;;;18.13;12.90;;;22.70;76.20;;;;;;5114164;28;20043;-77
2021/08/06 07:25:01;;;;;;;18.35;12.45;;;22.70;76.30;;;;;;5095849;28;20103;-78
2021/08/06 07:27:27;;;;;;;21.50;12.57;;;22.70;76.10;;;;;;5096092;28;20073;-78
2021/08/06 07:29:53;;;;;;;20.17;12.43;;;22.80;76.20;;;;;;5114475;28;20119;-78
2021/08/06 07:32:19;;;;;;;23.23;11.93;;;22.90;76.20;;;;;;5113937;28;20464;-78
2021/08/06 07:34:45;;;;;;;20.45;11.75;;;22.90;75.90;;;;;;5113632;28;20504;-78
2021/08/06 07:37:12;;;;;;;27.42;12.80;;;22.90;76.10;;;;;;5096369;28;20028;-77
2021/08/06 07:39:39;;;;;;;21.90;13.32;;;22.90;75.90;;;;;;5113056;28;20035;-81
2021/08/06 07:42:05;;;;;;;16.90;11.80;;;22.90;75.80;;;;;;5113850;28;20032;-81
2021/08/06 07:44:32;;;;;;;15.27;11.75;;;22.90;75.70;;;;;;5096293;28;20066;-79
2021/08/06 07:46:58;;;;;;;15.73;11.38;;;22.90;75.40;;;;;;5112384;28;20028;-79
2021/08/06 07:49:24;;;;;;;21.17;11.55;;;22.90;75.40;;;;;;5114024;28;20039;-79
2021/08/06 07:51:50;;;;;;;19.95;12.77;;;22.90;75.60;;;;;;5095438;28;20050;-80
2021/08/06 07:54:16;;;;;;;18.23;12.07;;;22.90;75.40;;;;;;5114251;28;20024;-78
2021/08/06 07:56:43;;;;;;;21.75;11.32;;;22.90;75.40;;;;;;5096209;28;20130;-80
2021/08/06 07:59:09;;;;;;;19.65;11.50;;;23.00;75.50;;;;;;5124677;27;20035;-80
2021/08/06 08:01:35;;;;;;;17.27;11.55;;;23.00;75.70;;;;;;5115733;27;20513;-78
2021/08/06 08:04:01;;;;;;;18.92;11.13;;;23.00;75.50;;;;;;5134380;27;20137;-79
2021/08/06 08:06:27;;;;;;;17.25;10.90;;;23.00;75.20;;;;;;5115995;27;20047;-80
2021/08/06 08:08:53;;;;;;;15.20;10.05;;;23.00;75.00;;;;;;5115952;27;20188;-81
2021/08/06 08:11:19;;;;;;;21.92;12.02;;;23.00;74.70;;;;;;5108324;28;20129;-82
2021/08/06 08:13:45;;;;;;;16.08;10.75;;;23.00;74.90;;;;;;5093964;28;20046;-81
2021/08/06 08:16:11;;;;;;;18.48;11.15;;;23.10;75.30;;;;;;5106108;27;20035;-79
2021/08/06 08:18:36;;;;;;;17.92;9.90;;;23.10;75.40;;;;;;5115566;27;20125;-80
2021/08/06 08:21:03;;;;;;;16.42;10.68;;;23.10;75.40;;;;;;5115905;27;20041;-79
2021/08/06 08:23:30;;;;;;;21.38;10.75;;;23.10;75.20;;;;;;5112684;27;20038;-80
2021/08/06 08:25:56;;;;;;;15.80;10.43;;;23.10;75.30;;;;;;5115897;27;20030;-80
2021/08/06 08:28:27;;;;;;;15.25;10.10;;;23.10;75.10;;;;;;5107478;28;20035;-81
2021/08/06 08:30:54;;;;;;;16.73;10.43;;;23.10;75.10;;;;;;5095368;28;20084;-80
2021/08/06 08:33:22;;;;;;;16.00;10.82;;;23.10;75.10;;;;;;5078231;28;20521;-80
2021/08/06 08:35:49;;;;;;;18.75;11.80;;;23.10;75.30;;;;;;5094739;28;20059;-79
2021/08/06 08:38:16;;;;;;;17.25;11.45;;;23.10;75.40;;;;;;5107447;28;20114;-80
2021/08/06 08:40:42;;;;;;;20.23;10.43;;;23.10;75.60;;;;;;5108813;28;20050;-82
2021/08/06 08:43:09;;;;;;;15.77;11.05;;;23.10;75.70;;;;;;5094189;28;20063;-81
2021/08/06 08:45:42;;;;;;;15.05;10.38;;;23.10;75.80;;;;;;5094323;28;20031;-80
2021/08/06 08:48:13;;;;;;;14.55;11.55;;;23.10;75.90;;;;;;5091787;28;20566;-79
2021/08/06 08:50:42;;;;;;;15.57;11.63;;;23.10;76.00;;;;;;5086470;28;20043;-83
2021/08/06 08:53:09;;;;;;;15.35;10.98;;;23.10;76.80;;;;;;5077732;28;20415;-86
2021/08/06 08:55:39;;;;;;;18.77;10.38;;;23.10;76.40;;;;;;5130143;28;20035;-84
2021/08/06 08:58:07;;;;;;;16.48;10.73;;;23.10;76.60;;;;;;5113779;28;20035;-88
2021/08/06 09:00:35;;;;;;;19.75;10.15;;;23.10;76.50;;;;;;5096706;28;20027;-88
2021/08/06 09:03:01;;;;;;;16.50;10.52;;;23.10;76.70;;;;;;5131717;28;20027;-88
2021/08/06 09:05:28;;;;;;;13.35;9.80;;;23.20;76.50;;;;;;5096627;28;20035;-84
2021/08/06 09:07:58;;;;;;;20.92;10.90;;;23.20;76.50;;;;;;5113863;28;20038;-84
2021/08/06 09:10:41;;;;;;;14.25;10.43;;;23.30;76.60;;;;;;5090796;28;20040;-86
2021/08/06 09:13:35;;;;;;;17.67;10.73;;;23.30;76.50;;;;;;5022071;28;20038;-80
2021/08/06 09:16:13;;;;;;;12.60;9.75;;;23.40;75.80;;;;;;5096100;28;20038;-79
2021/08/06 09:18:42;;;;;;;13.75;9.73;;;23.50;75.80;;;;;;5096189;28;20031;-83
2021/08/06 09:21:14;;;;;;;14.48;9.90;;;23.50;75.70;;;;;;5115039;28;20085;-80
2021/08/06 09:23:56;;;;;;;19.02;10.50;;;23.50;75.40;;;;;;5115270;28;20043;-81
2021/08/06 09:26:43;;;;;;;17.10;9.52;;;23.50;75.30;;;;;;5115436;28;20028;-81
2021/08/06 09:29:12;;;;;;;14.82;10.35;;;23.50;75.40;;;;;;5097446;28;20063;-81
2021/08/06 09:32:00;;;;;;;17.00;10.55;;;23.50;75.60;;;;;;5115047;28;20067;-78
2021/08/06 09:34:36;;;;;;;14.55;10.70;;;23.50;75.60;;;;;;5114923;28;20074;-80
2021/08/06 09:37:12;;;;;;;17.00;10.57;;;23.50;75.90;;;;;;5115440;28;20027;-80
2021/08/06 09:39:44;;;;;;;15.80;9.70;;;23.50;76.00;;;;;;5115016;28;20587;-80
2021/08/06 09:42:35;;;;;;;15.45;10.73;;;23.50;76.20;;;;;;5114938;28;20073;-82
2021/08/06 09:45:13;;;;;;;16.73;10.20;;;23.50;76.50;;;;;;5096610;28;20043;-81
2021/08/06 09:47:39;;;;;;;14.38;9.13;;;23.60;76.60;;;;;;5112125;28;20110;-81
2021/08/06 09:50:15;;;;;;;13.00;9.18;;;23.50;76.50;;;;;;5096708;28;20134;-82
2021/08/06 09:52:47;;;;;;;17.15;10.07;;;23.60;76.50;;;;;;5111553;28;20381;-83
2021/08/06 09:55:31;;;;;;;15.07;9.98;;;23.50;76.40;;;;;;5114718;28;20032;-82
2021/08/06 09:57:59;;;;;;;19.65;10.10;;;23.60;76.60;;;;;;5097021;28;20500;-84
2021/08/06 10:00:27;;;;;;;14.90;9.45;;;23.60;76.70;;;;;;5080165;28;20092;-84
2021/08/06 10:02:55;;;;;;;20.27;10.77;;;23.60;76.70;;;;;;5094917;28;20063;-84
2021/08/06 10:05:24;;;;;;;14.43;10.55;;;23.50;76.60;;;;;;5096235;28;20067;-81
2021/08/06 10:07:53;;;;;;;17.13;10.70;;;23.60;76.50;;;;;;5114782;28;20388;-82
2021/08/06 10:10:25;;;;;;;22.15;11.07;;;23.50;76.30;;;;;;5096236;28;20054;-81
2021/08/06 10:12:55;;;;;;;18.17;10.88;;;23.50;76.20;;;;;;5102054;27;20070;-80
2021/08/06 10:15:22;;;;;;;19.35;10.95;;;23.40;76.40;;;;;;5137966;27;20990;-80
2021/08/06 10:17:51;;;;;;;19.60;10.70;;;23.50;76.70;;;;;;5099797;27;20031;-84
2021/08/06 10:20:21;;;;;;;15.82;11.75;;;23.50;76.80;;;;;;5131570;27;20055;-88
2021/08/06 10:22:51;;;;;;;19.40;11.18;;;23.50;77.20;;;;;;5095383;28;20403;-86
2021/08/06 10:25:19;;;;;;;15.70;11.23;;;23.50;77.40;;;;;;5113508;28;20036;-86
2021/08/06 10:27:47;;;;;;;17.50;11.77;;;23.50;77.60;;;;;;5107757;27;20050;-86
2021/08/06 10:30:32;;;;;;;17.80;12.25;;;23.50;78.00;;;;;;5134538;27;20043;-82
2021/08/06 10:33:12;;;;;;;17.17;11.88;;;23.50;78.10;;;;;;5116788;27;20035;-86
2021/08/06 10:35:53;;;;;;;13.52;11.63;;;23.50;77.90;;;;;;5116873;27;20445;-85
2021/08/06 10:38:44;;;;;;;17.83;11.95;;;23.40;77.80;;;;;;5116152;27;20051;-84
2021/08/06 10:41:16;;;;;;;14.68;11.73;;;23.30;78.10;;;;;;5075247;28;20028;-84
2021/08/06 10:44:04;;;;;;;15.55;10.90;;;23.30;78.30;;;;;;5075263;28;20044;-87
2021/08/06 10:46:51;;;;;;;15.73;12.35;;;23.30;78.70;;;;;;5074723;28;20043;-85
2021/08/06 10:49:20;;;;;;;16.35;12.65;;;23.20;78.90;;;;;;5093502;28;20081;-87
2021/08/06 10:51:46;;;;;;;17.00;12.13;;;23.30;78.90;;;;;;5075197;28;20082;-86
2021/08/06 10:54:28;;;;;;;17.17;11.88;;;23.30;79.20;;;;;;5093576;28;20060;-83
2021/08/06 10:57:12;;;;;;;16.98;11.55;;;23.30;79.50;;;;;;5097288;28;20487;-88
2021/08/06 10:59:40;;;;;;;16.38;12.48;;;23.30;79.70;;;;;;5077890;28;20036;-87
2021/08/06 11:02:26;;;;;;;13.40;12.10;;;23.30;79.80;;;;;;5075056;28;20085;-88
2021/08/06 11:04:52;;;;;;;18.52;13.07;;;23.30;79.90;;;;;;5076370;28;20455;-86
2021/08/06 11:07:34;;;;;;;17.75;13.77;;;23.30;80.40;;;;;;5093284;28;20036;-83
2021/08/06 11:10:01;;;;;;;19.17;12.70;;;23.30;80.90;;;;;;5075586;28;20130;-86
2021/08/06 11:12:35;;;;;;;26.38;16.08;;;23.30;81.10;;;;;;5059577;28;20079;-83
2021/08/06 11:15:04;;;;;;;16.80;13.88;;;23.30;80.90;;;;;;5074964;28;20046;-83
2021/08/06 11:17:40;;;;;;;18.48;14.52;;;23.30;80.90;;;;;;5093386;28;20506;-84
2021/08/06 11:20:13;;;;;;;18.42;14.50;;;23.30;80.90;;;;;;5093077;28;20487;-89
2021/08/06 11:22:44;;;;;;;20.73;15.20;;;23.30;81.20;;;;;;5093353;28;20050;-79
2021/08/06 11:25:26;;;;;;;18.98;14.60;;;23.30;81.80;;;;;;5092642;28;20028;-78
2021/08/06 11:27:52;;;;;;;24.25;15.73;;;23.30;81.90;;;;;;5092760;28;20032;-79
2021/08/06 11:30:24;;;;;;;17.65;14.60;;;23.40;82.30;;;;;;5091301;28;20064;-80
2021/08/06 11:33:10;;;;;;;19.52;15.90;;;23.40;82.50;;;;;;5074636;28;20040;-81
2021/08/06 11:35:43;;;;;;;25.20;15.93;;;23.40;82.50;;;;;;5074083;28;20121;-78
2021/08/06 11:38:13;;;;;;;17.63;15.73;;;23.50;82.70;;;;;;5092455;28;20400;-80
2021/08/06 11:40:42;;;;;;;18.92;15.88;;;23.50;82.80;;;;;;5092555;28;20492;-79
2021/08/06 11:43:12;;;;;;;25.60;17.50;;;23.50;83.00;;;;;;5092727;28;20096;-80
2021/08/06 11:45:40;;;;;;;20.75;15.10;;;23.50;83.00;;;;;;5082035;28;20042;-79
2021/08/06 11:48:08;;;;;;;22.17;16.10;;;23.50;83.10;;;;;;5112817;28;20126;-82
2021/08/06 11:50:36;;;;;;;21.90;15.50;;;23.50;83.00;;;;;;5112714;28;20064;-82
2021/08/06 11:53:03;;;;;;;20.73;15.43;;;23.50;83.10;;;;;;5113230;28;20582;-78
2021/08/06 11:55:30;;;;;;;20.92;15.48;;;23.50;83.00;;;;;;5112610;28;20044;-79
2021/08/06 11:57:57;;;;;;;22.67;17.40;;;23.50;83.10;;;;;;5112628;28;20032;-79
2021/08/06 12:00:27;;;;;;;29.00;17.65;;;23.50;82.90;;;;;;5112873;28;20027;-76
2021/08/06 12:03:00;;;;;;;21.00;15.63;;;23.50;83.80;;;;;;5112504;28;20032;-77
2021/08/06 12:05:26;;;;;;;19.65;15.02;;;23.50;83.30;;;;;;5112229;28;20044;-80
2021/08/06 12:07:52;;;;;;;20.42;15.18;;;23.50;83.30;;;;;;5112441;28;20024;-78
2021/08/06 12:10:26;;;;;;;19.88;15.68;;;23.50;83.10;;;;;;5112250;28;20055;-77
2021/08/06 12:12:53;;;;;;;17.65;14.35;;;23.50;83.30;;;;;;5094244;28;20130;-77
2021/08/06 12:15:26;;;;;;;17.67;14.48;;;23.50;83.20;;;;;;5114616;27;20601;-78
2021/08/06 12:18:38;;;;;;;21.27;14.05;;;23.50;83.00;;;;;;5081226;28;20039;-79
2021/08/06 12:21:09;;;;;;;16.52;12.90;;;23.50;83.00;;;;;;5092003;28;20131;-80
2021/08/06 12:23:36;;;;;;;17.05;13.65;;;23.50;82.70;;;;;;5074150;28;20028;-81
2021/08/06 12:26:18;;;;;;;18.77;14.27;;;23.50;83.00;;;;;;5091455;28;20027;-79
2021/08/06 12:28:47;;;;;;;16.95;13.07;;;23.50;83.30;;;;;;5091820;28;20085;-80
2021/08/06 12:31:19;;;;;;;15.60;13.50;;;23.50;83.20;;;;;;5092461;28;20039;-79
2021/08/06 12:33:48;;;;;;;18.92;13.60;;;23.50;83.40;;;;;;5091457;28;20531;-79
2021/08/06 12:36:19;;;;;;;17.63;12.77;;;23.50;83.70;;;;;;5091554;28;20032;-77
2021/08/06 12:38:48;;;;;;;18.48;14.20;;;23.50;83.70;;;;;;5091261;28;20043;-76
2021/08/06 12:41:32;;;;;;;17.13;13.68;;;23.40;83.50;;;;;;5091402;28;20497;-79
2021/08/06 12:44:29;;;;;;;21.23;13.48;;;23.40;83.80;;;;;;5107549;28;20038;-79
2021/08/06 12:47:29;;;;;;;17.42;12.73;;;23.40;83.80;;;;;;5097899;28;20044;-81